To NAV CANADA Home Page Login to a new session Search on AWWS site Feedback and Comments Disclaimer Vers la page française équivalente Tips FAQ What's new on the site To the Forecasts and Observations / NOTAM section To "File a Flight Plan" website Publications and other links Update of the User's profile FIC Telephone Numbers My Weather Data Folder Route Weather Data Regional Weather Data Local Weather Data To the Forecasts and Observations / NOTAM section
Request Generated 08/25/2016 at 23:40:23 UTC . Weather information available at that time is displayed.

METAR/TAF

SASKATOON/JOHN G. DIEFENBAKER INTL/SK    

METAR CYXE 252300Z 24008KT 15SM FEW052 SCT140 BKN240 21/11 A3003 RMK
CU2AC2CI2 TCU ASOCTD E-S SLP180 DENSITY ALT 2500FT=
METAR CYXE 252200Z 26009G17KT 15SM SCT056TCU SCT100 BKN260 22/10
A3004 RMK TCU3AC1CI2 SLP184 DENSITY ALT 2600FT=
METAR CYXE 252100Z 24010G17KT 15SM SCT056 SCT100 BKN300 23/10 A3005
RMK CU3AC1CI3 SLP185 DENSITY ALT 2800FT=

TAF CYXE 252338Z 2600/2624 25012KT P6SM SCT040 BKN140 TEMPO 2600/2604
P6SM -SHRA BKN040 PROB40 2600/2604 4SM TSRA OVC030CB
FM260400 26006KT P6SM SCT012 BKN025 TEMPO 2604/2608 4SM SHRA BR
OVC008
FM260800 26006KT P6SM -SHRA OVC012 TEMPO 2608/2616 3SM SHRA BR
OVC008
FM261600 34012KT P6SM BKN012
FM262000 34010KT P6SM BKN030
RMK NXT FCST BY 260600Z=
Your time UTC time
Weather data provided by Environment Canada and NAV CANADA